createdAt,value
2018-12-06T00:00:22.410Z,4.20
2018-12-06T00:02:49.915Z,4.20
2018-12-06T00:05:17.401Z,4.20
2018-12-06T00:07:57.542Z,4.20
2018-12-06T00:10:25.030Z,4.10
2018-12-06T00:12:52.526Z,4.20
2018-12-06T00:15:24.933Z,4.10
2018-12-06T00:17:52.495Z,4.10
2018-12-06T00:20:20.002Z,4.20
2018-12-06T00:22:47.481Z,4.40
2018-12-06T00:25:15.059Z,4.50
2018-12-06T00:27:42.578Z,4.50
2018-12-06T00:30:22.014Z,4.50
2018-12-06T00:32:49.541Z,4.50
2018-12-06T00:35:17.026Z,4.50
2018-12-06T00:37:44.502Z,4.50
2018-12-06T00:40:12.017Z,4.50
2018-12-06T00:42:39.511Z,4.50
2018-12-06T00:45:07.089Z,4.50
2018-12-06T00:47:34.594Z,4.40
2018-12-06T00:50:02.170Z,4.30
2018-12-06T00:52:29.658Z,4.40
2018-12-06T00:54:57.168Z,4.40
2018-12-06T00:57:24.645Z,4.50
2018-12-06T00:59:52.122Z,4.60
2018-12-06T01:02:19.754Z,4.60
2018-12-06T01:04:47.244Z,4.60
2018-12-06T01:07:14.730Z,4.50
2018-12-06T01:09:42.233Z,4.50
2018-12-06T01:12:09.886Z,4.40
2018-12-06T01:14:40.414Z,4.40
2018-12-06T01:17:09.295Z,4.40
2018-12-06T01:19:36.806Z,4.30
2018-12-06T01:22:04.777Z,4.30
2018-12-06T01:24:32.287Z,4.30
2018-12-06T01:26:59.773Z,4.30
2018-12-06T01:29:27.257Z,4.30
2018-12-06T01:31:54.864Z,4.30
2018-12-06T01:34:22.350Z,4.30
2018-12-06T01:36:49.837Z,4.30
2018-12-06T01:39:17.376Z,4.30
2018-12-06T01:41:44.862Z,4.30
2018-12-06T01:44:12.366Z,4.20
2018-12-06T01:46:39.874Z,4.20
2018-12-06T01:49:07.365Z,4.30
2018-12-06T01:51:34.938Z,4.20
2018-12-06T01:54:02.496Z,4.30
2018-12-06T01:56:29.986Z,4.20
2018-12-06T01:58:57.474Z,4.30
2018-12-06T02:01:24.986Z,4.30
2018-12-06T02:03:52.765Z,4.30
2018-12-06T02:06:20.257Z,4.40
2018-12-06T02:08:47.762Z,4.50
2018-12-06T02:11:15.245Z,4.40
2018-12-06T02:13:42.814Z,4.40
2018-12-06T02:16:10.327Z,4.40
2018-12-06T02:18:37.868Z,4.40
2018-12-06T02:21:05.423Z,4.40
2018-12-06T02:23:32.933Z,4.40
2018-12-06T02:26:00.417Z,4.30
2018-12-06T02:28:27.905Z,4.40
2018-12-06T02:30:55.419Z,4.40
2018-12-06T02:33:22.923Z,4.40
2018-12-06T02:35:50.410Z,4.50
2018-12-06T02:38:17.926Z,4.60
2018-12-06T02:40:45.508Z,4.70
2018-12-06T02:43:13.083Z,4.70
2018-12-06T02:45:40.602Z,4.70
2018-12-06T02:48:08.094Z,4.60
2018-12-06T02:50:35.597Z,4.60
2018-12-06T02:53:03.198Z,4.70
2018-12-06T02:55:30.682Z,4.60
2018-12-06T02:57:58.170Z,4.60
2018-12-06T03:00:25.704Z,4.60
2018-12-06T03:02:53.189Z,4.60
2018-12-06T03:05:20.670Z,4.60
2018-12-06T03:07:48.179Z,4.60
2018-12-06T03:10:15.662Z,4.60
2018-12-06T03:12:43.173Z,4.70
2018-12-06T03:15:10.682Z,4.70
2018-12-06T03:17:38.185Z,4.70
2018-12-06T03:20:07.450Z,4.70
2018-12-06T03:22:34.959Z,4.70
2018-12-06T03:25:02.469Z,4.70
2018-12-06T03:27:29.956Z,4.70
2018-12-06T03:29:57.471Z,4.70
2018-12-06T03:32:24.976Z,4.70
2018-12-06T03:34:52.489Z,4.70
2018-12-06T03:37:19.994Z,4.70
2018-12-06T03:39:47.478Z,4.70
2018-12-06T03:42:14.984Z,4.70
2018-12-06T03:44:42.475Z,4.70
2018-12-06T03:47:10.006Z,4.70
2018-12-06T03:49:37.508Z,4.70
2018-12-06T03:52:05.103Z,4.70
2018-12-06T03:54:32.611Z,4.70
2018-12-06T03:57:00.102Z,4.70
2018-12-06T03:59:27.606Z,4.70
2018-12-06T04:01:55.095Z,4.70
2018-12-06T04:04:22.603Z,4.60
2018-12-06T04:06:50.116Z,4.70
2018-12-06T04:09:17.631Z,4.70
2018-12-06T04:11:45.199Z,4.60
2018-12-06T04:14:12.685Z,4.70
2018-12-06T04:16:40.208Z,4.70
2018-12-06T04:19:07.898Z,4.70
2018-12-06T04:21:35.398Z,4.70
2018-12-06T04:24:02.886Z,4.70
2018-12-06T04:26:30.516Z,4.80
2018-12-06T04:28:58.004Z,4.80
2018-12-06T04:31:25.518Z,4.80
2018-12-06T04:33:53.010Z,4.80
2018-12-06T04:36:20.504Z,4.80
2018-12-06T04:38:48.014Z,4.90
2018-12-06T04:41:15.502Z,4.90
2018-12-06T04:43:43.015Z,4.90
2018-12-06T04:46:10.506Z,4.90
2018-12-06T04:48:38.009Z,4.90
2018-12-06T04:51:05.491Z,4.90
2018-12-06T04:53:32.999Z,4.90
2018-12-06T04:56:00.539Z,4.80
2018-12-06T04:58:28.134Z,4.80
2018-12-06T05:00:55.626Z,4.80
2018-12-06T05:03:23.109Z,4.80
2018-12-06T05:05:50.651Z,4.80
2018-12-06T05:08:18.139Z,4.80
2018-12-06T05:10:45.641Z,4.80
2018-12-06T05:13:14.147Z,4.80
2018-12-06T05:15:41.756Z,4.80
2018-12-06T05:18:09.242Z,4.80
2018-12-06T05:20:36.756Z,4.80
2018-12-06T05:23:04.813Z,4.80
2018-12-06T05:25:32.306Z,4.80
2018-12-06T05:27:59.806Z,4.80
2018-12-06T05:30:27.321Z,4.80
2018-12-06T05:32:54.830Z,4.80
2018-12-06T05:35:22.315Z,4.80
2018-12-06T05:37:49.817Z,4.80
2018-12-06T05:40:17.301Z,4.70
2018-12-06T05:42:44.833Z,4.80
2018-12-06T05:45:12.401Z,4.70
2018-12-06T05:47:39.923Z,4.70
2018-12-06T05:50:07.497Z,4.80
2018-12-06T05:52:34.989Z,4.80
2018-12-06T05:55:02.489Z,4.90
2018-12-06T05:57:29.998Z,4.90
2018-12-06T05:59:57.507Z,5.00
2018-12-06T06:02:25.018Z,5.00
2018-12-06T06:04:52.518Z,5.00
2018-12-06T06:07:20.021Z,5.10
2018-12-06T06:09:47.539Z,5.10
2018-12-06T06:12:15.025Z,5.20
2018-12-06T06:14:42.513Z,5.20
2018-12-06T06:17:10.011Z,5.20
2018-12-06T06:19:37.501Z,5.20
2018-12-06T06:22:05.003Z,5.30
2018-12-06T06:24:32.490Z,5.30
2018-12-06T06:27:00.017Z,5.20
2018-12-06T06:29:27.501Z,5.20
2018-12-06T06:31:55.035Z,5.30
2018-12-06T06:34:22.524Z,5.40
2018-12-06T06:36:50.034Z,5.50
2018-12-06T06:39:17.533Z,5.60
2018-12-06T06:41:45.013Z,5.70
2018-12-06T06:44:12.523Z,5.70
2018-12-06T06:46:40.015Z,5.80
2018-12-06T06:49:13.871Z,5.90
2018-12-06T06:51:37.014Z,6.00
2018-12-06T06:54:04.518Z,6.00
2018-12-06T06:56:32.027Z,6.10
2018-12-06T06:58:59.542Z,6.20
2018-12-06T07:01:27.030Z,6.20
2018-12-06T07:03:54.543Z,6.30
2018-12-06T07:06:22.059Z,6.20
2018-12-06T07:08:49.557Z,6.20
2018-12-06T07:11:17.063Z,6.20
2018-12-06T07:13:44.577Z,6.10
2018-12-06T07:16:12.089Z,6.10
2018-12-06T07:18:39.582Z,6.10
2018-12-06T07:21:07.101Z,6.20
2018-12-06T07:23:34.595Z,6.30
2018-12-06T07:26:02.125Z,6.40
2018-12-06T07:28:29.610Z,6.50
2018-12-06T07:30:57.115Z,6.50
2018-12-06T07:33:24.624Z,6.50
2018-12-06T07:35:52.117Z,6.50
2018-12-06T07:38:19.642Z,6.60
2018-12-06T07:40:47.137Z,6.70
2018-12-06T07:43:14.664Z,6.70
2018-12-06T07:45:42.162Z,6.70
2018-12-06T07:48:09.678Z,6.80
2018-12-06T07:50:37.174Z,6.80
2018-12-06T07:53:04.661Z,6.90
2018-12-06T07:55:32.185Z,6.90
2018-12-06T07:57:59.674Z,6.90
2018-12-06T08:00:27.268Z,6.90
2018-12-06T08:02:54.754Z,6.90
2018-12-06T08:05:22.295Z,6.90
2018-12-06T08:07:49.790Z,6.90
2018-12-06T08:10:17.298Z,6.90
2018-12-06T08:12:44.786Z,6.90
2018-12-06T08:15:12.318Z,7.00
2018-12-06T08:17:39.804Z,7.00
2018-12-06T08:20:07.486Z,7.00
2018-12-06T08:22:34.986Z,7.00
2018-12-06T08:25:02.653Z,7.00
2018-12-06T08:27:30.158Z,6.90
2018-12-06T08:29:57.645Z,6.90
2018-12-06T08:32:25.142Z,6.90
2018-12-06T08:34:52.655Z,6.90
2018-12-06T08:37:20.154Z,6.90
2018-12-06T08:39:47.650Z,7.00
2018-12-06T08:42:15.145Z,7.00
2018-12-06T08:44:42.646Z,7.00
2018-12-06T08:47:10.276Z,7.00
2018-12-06T08:49:37.778Z,7.00
2018-12-06T08:52:05.338Z,7.00
2018-12-06T08:54:32.873Z,7.10
2018-12-06T08:57:00.432Z,7.10
2018-12-06T08:59:27.951Z,7.20
2018-12-06T09:01:55.440Z,7.30
2018-12-06T09:04:22.947Z,7.30
2018-12-06T09:06:50.421Z,7.40
2018-12-06T09:09:17.902Z,7.40
2018-12-06T09:11:45.413Z,7.50
2018-12-06T09:14:12.894Z,7.50
2018-12-06T09:16:40.402Z,7.50
2018-12-06T09:19:07.886Z,7.50
2018-12-06T09:21:35.391Z,7.50
2018-12-06T09:24:02.965Z,7.60
2018-12-06T09:26:30.496Z,7.60
2018-12-06T09:28:57.986Z,7.60
2018-12-06T09:31:25.470Z,7.60
2018-12-06T09:34:06.000Z,7.60
2018-12-06T09:36:33.490Z,7.70
2018-12-06T09:39:01.099Z,7.70
2018-12-06T09:41:28.597Z,7.70
2018-12-06T09:43:56.208Z,7.80
2018-12-06T09:46:23.698Z,7.80
2018-12-06T09:48:51.228Z,7.90
2018-12-06T09:51:18.724Z,7.90
2018-12-06T09:53:46.241Z,7.90
2018-12-06T09:56:13.726Z,8.00
2018-12-06T09:58:41.211Z,8.00
2018-12-06T10:01:08.718Z,8.10
2018-12-06T10:03:36.605Z,8.00
2018-12-06T10:06:04.202Z,8.10
2018-12-06T10:08:31.690Z,8.10
2018-12-06T10:10:59.187Z,8.10
2018-12-06T10:13:26.678Z,8.10
2018-12-06T10:15:54.189Z,8.10
2018-12-06T10:18:21.675Z,8.20
2018-12-06T10:20:49.153Z,8.20
2018-12-06T10:23:16.656Z,8.20
2018-12-06T10:25:44.137Z,8.30
2018-12-06T10:28:11.658Z,8.30
2018-12-06T10:30:39.146Z,8.30
2018-12-06T10:33:06.646Z,8.30
2018-12-06T10:35:34.134Z,8.40
2018-12-06T10:38:01.647Z,8.40
2018-12-06T10:40:29.157Z,8.40
2018-12-06T10:42:56.666Z,8.40
2018-12-06T10:45:24.242Z,8.40
2018-12-06T10:47:51.756Z,8.50
2018-12-06T10:50:19.379Z,8.50
2018-12-06T10:52:46.862Z,8.50
2018-12-06T10:55:14.383Z,8.50
2018-12-06T10:57:41.870Z,8.50
2018-12-06T11:00:11.551Z,8.60
2018-12-06T11:02:55.802Z,8.60
2018-12-06T11:05:23.298Z,8.60
2018-12-06T11:07:50.786Z,8.70
2018-12-06T11:10:18.293Z,8.70
2018-12-06T11:12:45.795Z,8.70
2018-12-06T11:15:39.846Z,8.80
2018-12-06T11:18:07.352Z,8.80
2018-12-06T11:20:34.838Z,8.80
2018-12-06T11:23:02.351Z,8.90
2018-12-06T11:25:29.853Z,8.90
2018-12-06T11:27:57.354Z,8.90
2018-12-06T11:30:24.843Z,8.90
2018-12-06T11:32:52.351Z,8.90
2018-12-06T11:35:19.829Z,9.00
2018-12-06T11:37:47.382Z,9.00
2018-12-06T11:40:14.871Z,9.00
2018-12-06T11:42:42.370Z,9.10
2018-12-06T11:45:09.959Z,9.10
2018-12-06T11:47:37.452Z,9.10
2018-12-06T11:50:06.132Z,9.10
2018-12-06T11:52:33.612Z,9.20
2018-12-06T11:55:01.141Z,9.20
2018-12-06T11:57:28.630Z,9.20
2018-12-06T11:59:56.126Z,9.20
2018-12-06T12:02:23.610Z,9.30
2018-12-06T12:04:51.104Z,9.30
2018-12-06T12:07:18.618Z,9.30
2018-12-06T12:09:46.105Z,9.30
2018-12-06T12:12:13.631Z,9.40
2018-12-06T12:14:41.118Z,9.40
2018-12-06T12:17:08.630Z,9.40
2018-12-06T12:19:36.112Z,9.50
2018-12-06T12:22:03.621Z,9.50
2018-12-06T12:24:31.118Z,9.60
2018-12-06T12:26:58.632Z,9.70
2018-12-06T12:29:26.121Z,9.70
2018-12-06T12:31:53.601Z,9.80
2018-12-06T12:34:21.105Z,9.90
2018-12-06T12:36:48.606Z,10.20
2018-12-06T12:39:16.120Z,10.50
2018-12-06T12:41:43.611Z,10.80
2018-12-06T12:44:11.113Z,11.20
2018-12-06T12:46:38.610Z,11.50
2018-12-06T12:49:06.384Z,11.70
2018-12-06T12:51:33.918Z,11.90
2018-12-06T12:54:01.430Z,12.10
2018-12-06T12:56:28.914Z,12.20
2018-12-06T12:58:56.403Z,12.30
2018-12-06T13:01:23.906Z,12.40
2018-12-06T13:03:51.391Z,12.40
2018-12-06T13:06:19.002Z,12.40
2018-12-06T13:08:46.485Z,12.50
2018-12-06T13:11:13.986Z,12.50
2018-12-06T13:13:41.474Z,12.60
2018-12-06T13:16:09.009Z,12.70
2018-12-06T13:18:36.495Z,12.90
2018-12-06T13:21:04.082Z,13.00
2018-12-06T13:23:31.577Z,13.00
2018-12-06T13:25:59.068Z,13.10
2018-12-06T13:28:26.693Z,13.20
2018-12-06T13:30:54.393Z,13.30
2018-12-06T13:33:21.909Z,13.30
2018-12-06T13:35:49.399Z,13.30
2018-12-06T13:38:16.900Z,13.40
2018-12-06T13:40:44.423Z,13.50
2018-12-06T13:43:12.067Z,13.50
2018-12-06T13:45:39.574Z,13.30
2018-12-06T13:48:07.080Z,13.00
2018-12-06T13:50:34.583Z,12.90
2018-12-06T13:53:02.075Z,12.60
2018-12-06T13:55:29.587Z,12.40
2018-12-06T13:57:57.187Z,12.30
2018-12-06T14:00:24.829Z,12.20
2018-12-06T14:02:52.406Z,12.00
2018-12-06T14:05:19.920Z,11.90
2018-12-06T14:07:47.413Z,11.90
2018-12-06T14:10:14.893Z,11.80
2018-12-06T14:12:42.394Z,11.70
2018-12-06T14:15:09.886Z,11.60
2018-12-06T14:17:37.389Z,11.50
2018-12-06T14:20:05.646Z,11.40
2018-12-06T14:22:33.158Z,11.40
2018-12-06T14:25:00.680Z,11.30
2018-12-06T14:27:28.202Z,11.20
2018-12-06T14:29:55.703Z,11.10
2018-12-06T14:32:23.190Z,11.00
2018-12-06T14:34:50.698Z,10.90
2018-12-06T14:37:18.279Z,10.90
2018-12-06T14:39:45.781Z,10.80
2018-12-06T14:42:13.267Z,10.70
2018-12-06T14:44:40.781Z,10.60
2018-12-06T14:47:08.300Z,10.60
2018-12-06T14:49:35.806Z,10.60
2018-12-06T14:52:03.320Z,10.60
2018-12-06T14:54:30.838Z,10.50
2018-12-06T14:56:58.335Z,10.50
2018-12-06T14:59:25.826Z,10.50
2018-12-06T15:01:53.352Z,10.40
2018-12-06T15:04:20.847Z,10.40
2018-12-06T15:06:48.365Z,10.40
2018-12-06T15:09:15.882Z,10.30
2018-12-06T15:11:43.390Z,10.30
2018-12-06T15:14:10.961Z,10.30
2018-12-06T15:16:38.475Z,10.30
2018-12-06T15:19:05.990Z,10.20
2018-12-06T15:21:33.754Z,10.20
2018-12-06T15:24:01.260Z,10.20
2018-12-06T15:26:28.771Z,10.10
2018-12-06T15:28:56.273Z,10.10
2018-12-06T15:31:23.795Z,10.10
2018-12-06T15:33:51.305Z,10.00
2018-12-06T15:36:18.795Z,10.00
2018-12-06T15:38:46.302Z,10.00
2018-12-06T15:41:13.802Z,10.00
2018-12-06T15:43:41.337Z,9.90
2018-12-06T15:46:08.822Z,9.90
2018-12-06T15:48:36.335Z,9.80
2018-12-06T15:51:03.874Z,9.80
2018-12-06T15:53:31.366Z,9.80
2018-12-06T15:55:58.875Z,9.80
2018-12-06T15:58:26.357Z,9.80
2018-12-06T16:00:53.876Z,9.80
2018-12-06T16:03:21.456Z,9.80
2018-12-06T16:05:48.974Z,9.70
2018-12-06T16:08:16.654Z,9.70
2018-12-06T16:10:44.521Z,9.70
2018-12-06T16:13:12.051Z,9.60
2018-12-06T16:15:39.553Z,9.60
2018-12-06T16:18:07.061Z,9.60
2018-12-06T16:20:34.542Z,9.60
2018-12-06T16:23:02.051Z,9.60
2018-12-06T16:25:29.557Z,9.60
2018-12-06T16:27:57.066Z,9.60
2018-12-06T16:30:24.562Z,9.60
2018-12-06T16:32:52.050Z,9.60
2018-12-06T16:35:19.554Z,9.60
2018-12-06T16:37:47.043Z,9.60
2018-12-06T16:40:14.598Z,9.60
2018-12-06T16:42:42.081Z,9.60
2018-12-06T16:45:09.670Z,9.60
2018-12-06T16:47:37.154Z,9.60
2018-12-06T16:50:06.622Z,9.60
2018-12-06T16:52:34.114Z,9.60
2018-12-06T16:55:01.645Z,9.60
2018-12-06T16:57:29.129Z,9.50
2018-12-06T16:59:56.619Z,9.50
2018-12-06T17:02:24.128Z,9.50
2018-12-06T17:04:51.626Z,9.50
2018-12-06T17:07:19.326Z,9.50
2018-12-06T17:09:46.826Z,9.50
2018-12-06T17:12:14.338Z,9.40
2018-12-06T17:14:41.848Z,9.40
2018-12-06T17:17:09.355Z,9.30
2018-12-06T17:19:36.848Z,9.30
2018-12-06T17:22:04.331Z,9.30
2018-12-06T17:24:31.833Z,9.20
2018-12-06T17:26:59.336Z,9.20
2018-12-06T17:29:26.838Z,9.10
2018-12-06T17:31:54.337Z,9.10
2018-12-06T17:34:21.844Z,9.00
2018-12-06T17:36:50.794Z,9.00
2018-12-06T17:39:18.561Z,9.00
2018-12-06T17:41:46.049Z,9.00
2018-12-06T17:44:13.564Z,9.00
2018-12-06T17:46:41.222Z,9.00
2018-12-06T17:49:08.718Z,8.80
2018-12-06T17:51:36.218Z,8.80
2018-12-06T17:54:03.789Z,8.60
2018-12-06T17:56:31.296Z,8.60
2018-12-06T17:58:58.791Z,8.60
2018-12-06T18:01:26.314Z,8.60
2018-12-06T18:03:53.914Z,8.50
2018-12-06T18:06:21.502Z,8.50
2018-12-06T18:08:49.113Z,8.50
2018-12-06T18:11:17.509Z,8.50
2018-12-06T18:13:45.098Z,8.40
2018-12-06T18:16:19.331Z,8.30
2018-12-06T18:18:42.106Z,8.30
2018-12-06T18:21:09.630Z,8.20
2018-12-06T18:23:37.129Z,8.10
2018-12-06T18:26:04.618Z,8.10
2018-12-06T18:28:32.122Z,8.20
2018-12-06T18:30:59.613Z,8.20
2018-12-06T18:33:27.099Z,8.10
2018-12-06T18:35:54.599Z,8.00
2018-12-06T18:38:22.102Z,7.90
2018-12-06T18:40:49.610Z,8.00
2018-12-06T18:43:17.678Z,8.00
2018-12-06T18:45:45.323Z,8.00
2018-12-06T18:48:12.889Z,8.00
2018-12-06T18:50:40.395Z,7.90
2018-12-06T18:53:18.678Z,7.90
2018-12-06T18:55:46.218Z,7.80
2018-12-06T18:58:13.710Z,7.70
2018-12-06T19:00:41.205Z,7.70
2018-12-06T19:03:08.710Z,7.60
2018-12-06T19:05:36.204Z,7.50
2018-12-06T19:08:03.715Z,7.30
2018-12-06T19:10:31.197Z,7.30
2018-12-06T19:12:58.694Z,7.20
2018-12-06T19:15:26.177Z,7.10
2018-12-06T19:17:53.681Z,7.10
2018-12-06T19:20:21.179Z,7.30
2018-12-06T19:22:48.657Z,7.40
2018-12-06T19:25:16.166Z,7.30
2018-12-06T19:27:43.662Z,7.20
2018-12-06T19:30:11.167Z,7.20
2018-12-06T19:32:38.667Z,7.30
2018-12-06T19:35:06.510Z,7.40
2018-12-06T19:37:34.012Z,7.50
2018-12-06T19:40:01.500Z,7.50
2018-12-06T19:42:29.001Z,7.60
2018-12-06T19:44:56.495Z,7.50
2018-12-06T19:47:24.009Z,7.40
2018-12-06T19:49:51.514Z,7.40
2018-12-06T19:52:19.104Z,7.50
2018-12-06T19:54:46.606Z,7.50
2018-12-06T19:57:14.090Z,7.50
2018-12-06T19:59:41.584Z,7.40
2018-12-06T20:02:09.070Z,7.20
2018-12-06T20:04:36.574Z,7.20
2018-12-06T20:07:04.142Z,7.20
2018-12-06T20:09:31.653Z,7.20
2018-12-06T20:11:59.163Z,7.30
2018-12-06T20:14:26.669Z,7.40
2018-12-06T20:16:54.174Z,7.40
2018-12-06T20:19:21.666Z,7.30
2018-12-06T20:21:49.174Z,7.40
2018-12-06T20:24:16.673Z,7.40
2018-12-06T20:26:44.294Z,7.40
2018-12-06T20:29:11.870Z,7.40
2018-12-06T20:31:39.378Z,7.40
2018-12-06T20:34:06.861Z,7.40
2018-12-06T20:36:34.383Z,7.40
2018-12-06T20:39:01.865Z,7.30
2018-12-06T20:41:29.369Z,7.30
2018-12-06T20:43:56.883Z,7.30
2018-12-06T20:46:24.370Z,7.30
2018-12-06T20:48:51.882Z,7.50
2018-12-06T20:51:19.379Z,7.50
2018-12-06T20:53:47.022Z,7.50
2018-12-06T20:56:14.515Z,7.40
2018-12-06T20:58:42.033Z,7.30
2018-12-06T21:01:09.523Z,7.30
2018-12-06T21:03:37.034Z,7.30
2018-12-06T21:06:04.531Z,7.30
2018-12-06T21:08:32.014Z,7.30
2018-12-06T21:10:59.538Z,7.30
2018-12-06T21:13:27.030Z,7.30
2018-12-06T21:15:54.538Z,7.40
2018-12-06T21:18:22.023Z,7.40
2018-12-06T21:20:49.534Z,7.50
2018-12-06T21:23:17.030Z,7.70
2018-12-06T21:25:44.539Z,7.70
2018-12-06T21:28:12.056Z,7.70
2018-12-06T21:30:39.543Z,7.70
2018-12-06T21:33:07.052Z,7.70
2018-12-06T21:35:34.538Z,7.80
2018-12-06T21:38:02.038Z,7.90
2018-12-06T21:40:29.534Z,7.90
2018-12-06T21:42:57.038Z,7.90
2018-12-06T21:45:24.525Z,7.80
2018-12-06T21:47:52.027Z,7.70
2018-12-06T21:50:19.506Z,7.60
2018-12-06T21:52:47.006Z,7.40
2018-12-06T21:55:14.506Z,7.30
2018-12-06T21:57:41.982Z,7.30
2018-12-06T22:00:10.496Z,7.30
2018-12-06T22:02:38.128Z,7.30
2018-12-06T22:05:05.711Z,7.30
2018-12-06T22:07:33.199Z,7.20
2018-12-06T22:10:00.702Z,7.20
2018-12-06T22:12:28.210Z,7.20
2018-12-06T22:14:55.725Z,7.10
2018-12-06T22:17:23.218Z,7.00
2018-12-06T22:19:50.739Z,7.10
2018-12-06T22:22:18.337Z,7.00
2018-12-06T22:24:45.830Z,6.90
2018-12-06T22:27:13.342Z,6.90
2018-12-06T22:29:40.854Z,6.90
2018-12-06T22:32:08.358Z,6.80
2018-12-06T22:34:35.861Z,6.90
2018-12-06T22:37:03.454Z,6.90
2018-12-06T22:39:30.946Z,6.90
2018-12-06T22:41:58.433Z,6.90
2018-12-06T22:44:25.967Z,6.80
2018-12-06T22:46:53.457Z,6.70
2018-12-06T22:49:20.973Z,6.60
2018-12-06T22:51:48.475Z,6.60
2018-12-06T22:54:15.979Z,6.50
2018-12-06T22:56:43.479Z,6.50
2018-12-06T22:59:11.000Z,6.60
2018-12-06T23:01:39.410Z,6.60
2018-12-06T23:04:07.398Z,6.60
2018-12-06T23:06:34.890Z,6.50
2018-12-06T23:09:03.259Z,6.50
2018-12-06T23:11:30.786Z,6.40
2018-12-06T23:13:58.293Z,6.50
2018-12-06T23:16:25.810Z,6.50
2018-12-06T23:18:53.302Z,6.50
2018-12-06T23:21:20.814Z,6.40
2018-12-06T23:23:48.322Z,6.30
2018-12-06T23:26:15.834Z,6.30
2018-12-06T23:28:43.347Z,6.30
2018-12-06T23:31:10.833Z,6.30
2018-12-06T23:33:38.337Z,6.30
2018-12-06T23:36:05.830Z,6.20
2018-12-06T23:38:33.338Z,6.20
2018-12-06T23:41:00.870Z,6.10
2018-12-06T23:43:28.384Z,6.10
2018-12-06T23:45:55.885Z,6.20
2018-12-06T23:48:23.392Z,6.20
2018-12-06T23:50:52.663Z,6.20
2018-12-06T23:53:20.185Z,6.20
2018-12-06T23:55:47.678Z,6.20
2018-12-06T23:58:15.165Z,6.30
